Time,TemperatureF,DewpointF,PressureIn,WindDirection,WindDirectionDegrees,WindSpeedMPH,WindSpeedGustMPH,Humidity,HourlyPrecipIn,Conditions,Clouds,dailyrainin,SoftwareType,DateUTC
2013-04-21 00:15:00,60.4,31.0,29.96,WSW,254,0.0,-999.0,33,-99.99,,,0.00,weatherlink.com 1.10,2013-04-21 07:15:00,
2013-04-21 00:30:00,59.9,31.0,29.95,WSW,254,0.0,-999.0,33,-99.99,,,0.00,weatherlink.com 1.10,2013-04-21 07:30:00,
2013-04-21 00:45:00,59.5,29.0,29.95,WSW,254,0.0,-999.0,32,-99.99,,,0.00,weatherlink.com 1.10,2013-04-21 07:45:00,
2013-04-21 01:00:00,59.3,28.0,29.94,WSW,254,3.0,-999.0,31,-99.99,,,0.00,weatherlink.com 1.10,2013-04-21 08:00:00,
2013-04-21 01:15:00,58.9,28.0,29.94,SSW,211,0.0,-999.0,31,-99.99,,,0.00,weatherlink.com 1.10,2013-04-21 08:15:00,
2013-04-21 01:30:00,58.3,28.0,29.94,SSW,213,0.0,-999.0,32,-99.99,,,0.00,weatherlink.com 1.10,2013-04-21 08:30:00,
2013-04-21 01:45:00,58.4,28.0,29.94,SSW,213,0.0,-999.0,32,-99.99,,,0.00,weatherlink.com 1.10,2013-04-21 08:45:00,
2013-04-21 02:00:00,59.0,27.0,29.94,SW,228,0.0,-999.0,30,-99.99,,,0.00,weatherlink.com 1.10,2013-04-21 09:00:00,
2013-04-21 02:15:00,58.6,29.0,29.93,South,184,0.0,-999.0,32,-99.99,,,0.00,weatherlink.com 1.10,2013-04-21 09:15:00,
2013-04-21 02:30:00,57.6,29.0,29.93,South,184,0.0,-999.0,33,-99.99,,,0.00,weatherlink.com 1.10,2013-04-21 09:30:00,
2013-04-21 02:45:00,56.9,27.0,29.93,South,184,0.0,-999.0,32,-99.99,,,0.00,weatherlink.com 1.10,2013-04-21 09:45:00,
2013-04-21 03:00:00,56.3,29.0,29.92,South,183,0.0,-999.0,35,-99.99,,,0.00,weatherlink.com 1.10,2013-04-21 10:00:00,
2013-04-21 03:16:00,56.0,29.0,29.92,South,183,0.0,-999.0,36,-99.99,,,0.00,weatherlink.com 1.10,2013-04-21 10:16:00,
2013-04-21 03:31:00,55.9,29.0,29.92,South,183,0.0,-999.0,36,-99.99,,,0.00,weatherlink.com 1.10,2013-04-21 10:31:00,
2013-04-21 03:46:00,55.0,27.0,29.93,NW,313,2.0,-999.0,34,-99.99,,,0.00,weatherlink.com 1.10,2013-04-21 10:46:00,
2013-04-21 04:01:00,53.6,25.0,29.93,NW,312,0.0,-999.0,33,-99.99,,,0.00,weatherlink.com 1.10,2013-04-21 11:01:00,
2013-04-21 04:16:00,52.5,25.0,29.93,WNW,282,0.0,-999.0,35,-99.99,,,0.00,weatherlink.com 1.10,2013-04-21 11:16:00,
2013-04-21 04:31:00,52.0,25.0,29.93,WNW,282,0.0,-999.0,35,-99.99,,,0.00,weatherlink.com 1.10,2013-04-21 11:31:00,
2013-04-21 04:46:00,51.1,25.0,29.93,WNW,284,1.0,-999.0,37,-99.99,,,0.00,weatherlink.com 1.10,2013-04-21 11:46:00,
2013-04-21 05:01:00,50.2,25.0,29.93,WNW,286,3.0,-999.0,38,-99.99,,,0.00,weatherlink.com 1.10,2013-04-21 12:01:00,
2013-04-21 05:16:00,49.4,25.0,29.94,WNW,286,0.0,-999.0,39,-99.99,,,0.00,weatherlink.com 1.10,2013-04-21 12:16:00,
2013-04-21 05:32:00,48.8,26.0,29.93,WNW,286,0.0,-999.0,41,-99.99,,,0.00,weatherlink.com 1.10,2013-04-21 12:32:00,
2013-04-21 05:47:00,48.0,25.0,29.94,WNW,286,0.0,-999.0,40,-99.99,,,0.00,weatherlink.com 1.10,2013-04-21 12:47:00,
2013-04-21 06:02:00,47.3,25.0,29.94,WNW,286,0.0,-999.0,42,-99.99,,,0.00,weatherlink.com 1.10,2013-04-21 13:02:00,
2013-04-21 06:17:00,46.5,25.0,29.96,WNW,286,0.0,-999.0,43,-99.99,,,0.00,weatherlink.com 1.10,2013-04-21 13:17:00,
2013-04-21 06:32:00,46.2,25.0,29.96,WNW,286,3.0,-999.0,44,-99.99,,,0.00,weatherlink.com 1.10,2013-04-21 13:32:00,
2013-04-21 06:47:00,46.5,25.0,29.97,NNW,345,3.0,-999.0,43,-99.99,,,0.00,weatherlink.com 1.10,2013-04-21 13:47:00,
2013-04-21 07:02:00,47.9,27.0,29.96,NNW,329,0.0,-999.0,44,-99.99,,,0.00,weatherlink.com 1.10,2013-04-21 14:02:00,
2013-04-21 07:17:00,50.5,26.0,29.98,NW,321,0.0,-999.0,39,-99.99,,,0.00,weatherlink.com 1.10,2013-04-21 14:17:00,
2013-04-21 07:32:00,52.8,27.0,29.99,NW,321,0.0,-999.0,37,-99.99,,,0.00,weatherlink.com 1.10,2013-04-21 14:32:00,
2013-04-21 07:47:00,55.9,28.0,29.98,SW,227,0.0,-999.0,35,-99.99,,,0.00,weatherlink.com 1.10,2013-04-21 14:47:00,
2013-04-21 08:02:00,57.6,29.0,29.97,SW,227,0.0,-999.0,34,-99.99,,,0.00,weatherlink.com 1.10,2013-04-21 15:02:00,
2013-04-21 08:17:00,59.5,29.0,29.99,SW,226,0.0,-999.0,31,-99.99,,,0.00,weatherlink.com 1.10,2013-04-21 15:17:00,
2013-04-21 08:33:00,61.3,29.0,29.99,SSW,198,0.0,-999.0,29,-99.99,,,0.00,weatherlink.com 1.10,2013-04-21 15:33:00,
2013-04-21 08:48:00,63.2,29.0,29.98,SE,144,0.0,-999.0,28,-99.99,,,0.00,weatherlink.com 1.10,2013-04-21 15:48:00,
2013-04-21 09:03:00,65.6,31.0,29.97,SSE,147,0.0,-999.0,27,-99.99,,,0.00,weatherlink.com 1.10,2013-04-21 16:03:00,
2013-04-21 09:18:00,67.6,30.0,29.98,SE,144,0.0,-999.0,25,-99.99,,,0.00,weatherlink.com 1.10,2013-04-21 16:18:00,
2013-04-21 09:33:00,69.8,30.0,29.97,SE,128,6.0,-999.0,23,-99.99,,,0.00,weatherlink.com 1.10,2013-04-21 16:33:00,
2013-04-21 09:48:00,71.1,28.0,29.97,ESE,114,0.0,-999.0,20,-99.99,,,0.00,weatherlink.com 1.10,2013-04-21 16:48:00,
2013-04-21 10:03:00,72.3,28.0,29.97,East,92,1.0,-999.0,19,-99.99,,,0.00,weatherlink.com 1.10,2013-04-21 17:03:00,
2013-04-21 10:18:00,73.7,28.0,29.97,ESE,111,0.0,-999.0,18,-99.99,,,0.00,weatherlink.com 1.10,2013-04-21 17:18:00,
2013-04-21 10:33:00,74.9,24.0,29.96,East,91,0.0,-999.0,15,-99.99,,,0.00,weatherlink.com 1.10,2013-04-21 17:33:00,
2013-04-21 10:49:00,76.3,24.0,29.96,East,83,5.0,-999.0,14,-99.99,,,0.00,weatherlink.com 1.10,2013-04-21 17:49:00,
2013-04-21 11:04:00,77.7,23.0,29.95,ESE,104,0.0,-999.0,13,-99.99,,,0.00,weatherlink.com 1.10,2013-04-21 18:04:00,
2013-04-21 11:19:00,79.4,22.0,29.96,SE,146,4.0,-999.0,12,-99.99,,,0.00,weatherlink.com 1.10,2013-04-21 18:19:00,
2013-04-21 11:34:00,79.8,23.0,29.95,SE,136,0.0,-999.0,12,-99.99,,,0.00,weatherlink.com 1.10,2013-04-21 18:34:00,
2013-04-21 11:49:00,81.4,22.0,29.95,NE,51,0.0,-999.0,11,-99.99,,,0.00,weatherlink.com 1.10,2013-04-21 18:49:00,
2013-04-21 12:04:00,82.6,23.0,29.93,NE,37,0.0,-999.0,11,-99.99,,,0.00,weatherlink.com 1.10,2013-04-21 19:04:00,
2013-04-21 12:19:00,83.8,19.0,29.93,SSW,213,3.0,-999.0,9,-99.99,,,0.00,weatherlink.com 1.10,2013-04-21 19:19:00,
2013-04-21 12:34:00,84.7,17.0,29.93,SW,232,0.0,-999.0,8,-99.99,,,0.00,weatherlink.com 1.10,2013-04-21 19:34:00,
2013-04-21 12:49:00,85.9,18.0,29.91,South,184,6.0,-999.0,8,-99.99,,,0.00,weatherlink.com 1.10,2013-04-21 19:49:00,
2013-04-21 13:04:00,85.3,18.0,29.91,SW,234,3.0,-999.0,8,-99.99,,,0.00,weatherlink.com 1.10,2013-04-21 20:04:00,
2013-04-21 13:19:00,86.5,18.0,29.90,West,277,4.0,-999.0,8,-99.99,,,0.00,weatherlink.com 1.10,2013-04-21 20:19:00,
2013-04-21 13:35:00,87.4,19.0,29.89,NE,51,0.0,-999.0,8,-99.99,,,0.00,weatherlink.com 1.10,2013-04-21 20:35:00,
2013-04-21 13:50:00,88.0,16.0,29.88,SSW,202,2.0,-999.0,7,-99.99,,,0.00,weatherlink.com 1.10,2013-04-21 20:50:00,
2013-04-21 14:05:00,89.5,18.0,29.87,WNW,288,4.0,-999.0,7,-99.99,,,0.00,weatherlink.com 1.10,2013-04-21 21:05:00,
2013-04-21 14:20:00,89.5,18.0,29.88,South,183,5.0,-999.0,7,-99.99,,,0.00,weatherlink.com 1.10,2013-04-21 21:20:00,
2013-04-21 14:35:00,89.3,21.0,29.87,SSW,211,7.0,-999.0,8,-99.99,,,0.00,weatherlink.com 1.10,2013-04-21 21:35:00,
2013-04-21 14:50:00,89.0,23.0,29.86,South,170,6.0,-999.0,9,-99.99,,,0.00,weatherlink.com 1.10,2013-04-21 21:50:00,
2013-04-21 15:05:00,88.2,25.0,29.86,SSE,166,14.0,-999.0,10,-99.99,,,0.00,weatherlink.com 1.10,2013-04-21 22:05:00,
2013-04-21 15:20:00,87.8,27.0,29.86,South,187,17.0,-999.0,11,-99.99,,,0.00,weatherlink.com 1.10,2013-04-21 22:20:00,
2013-04-21 15:35:00,86.5,30.0,29.86,SSW,210,19.0,-999.0,13,-99.99,,,0.00,weatherlink.com 1.10,2013-04-21 22:35:00,
2013-04-21 15:50:00,85.5,31.0,29.86,South,181,20.0,-999.0,14,-99.99,,,0.00,weatherlink.com 1.10,2013-04-21 22:50:00,
2013-04-21 16:05:00,85.9,31.0,29.85,SSE,166,22.0,-999.0,14,-99.99,,,0.00,weatherlink.com 1.10,2013-04-21 23:05:00,
2013-04-21 16:20:00,85.7,33.0,29.86,South,180,33.0,-999.0,15,-99.99,,,0.00,weatherlink.com 1.10,2013-04-21 23:20:00,
2013-04-21 16:36:00,86.1,32.0,29.86,SSW,194,16.0,-999.0,14,-99.99,,,0.00,weatherlink.com 1.10,2013-04-21 23:36:00,
2013-04-21 16:51:00,85.9,31.0,29.86,South,184,21.0,-999.0,14,-99.99,,,0.00,weatherlink.com 1.10,2013-04-21 23:51:00,
2013-04-21 17:06:00,84.9,31.0,29.87,SSW,200,12.0,-999.0,14,-99.99,,,0.00,weatherlink.com 1.10,2013-04-22 00:06:00,
2013-04-21 17:21:00,84.5,27.0,29.88,West,262,11.0,-999.0,12,-99.99,,,0.00,weatherlink.com 1.10,2013-04-22 00:21:00,
2013-04-21 17:36:00,83.4,31.0,29.89,SSW,192,11.0,-999.0,15,-99.99,,,0.00,weatherlink.com 1.10,2013-04-22 00:36:00,
2013-04-21 17:51:00,83.4,24.0,29.89,WSW,241,7.0,-999.0,11,-99.99,,,0.00,weatherlink.com 1.10,2013-04-22 00:51:00,
2013-04-21 18:06:00,83.8,22.0,29.89,West,266,11.0,-999.0,10,-99.99,,,0.00,weatherlink.com 1.10,2013-04-22 01:06:00,
2013-04-21 18:21:00,83.0,21.0,29.89,SW,217,13.0,-999.0,10,-99.99,,,0.00,weatherlink.com 1.10,2013-04-22 01:21:00,
2013-04-21 18:36:00,82.0,18.0,29.90,SW,217,8.0,-999.0,9,-99.99,,,0.00,weatherlink.com 1.10,2013-04-22 01:36:00,
2013-04-21 18:51:00,81.1,11.0,29.90,SW,228,3.0,-999.0,7,-99.99,,,0.00,weatherlink.com 1.10,2013-04-22 01:51:00,
2013-04-21 19:06:00,79.8,10.0,29.90,WSW,254,12.0,-999.0,7,-99.99,,,0.00,weatherlink.com 1.10,2013-04-22 02:06:00,
2013-04-21 19:21:00,78.3,9.0,29.89,WSW,241,15.0,-999.0,7,-99.99,,,0.00,weatherlink.com 1.10,2013-04-22 02:21:00,
2013-04-21 19:37:00,76.3,13.0,29.90,SSW,202,11.0,-999.0,9,-99.99,,,0.00,weatherlink.com 1.10,2013-04-22 02:37:00,
2013-04-21 19:52:00,74.7,12.0,29.91,SW,234,11.0,-999.0,9,-99.99,,,0.00,weatherlink.com 1.10,2013-04-22 02:52:00,
2013-04-21 20:07:00,73.5,21.0,29.92,WSW,241,10.0,-999.0,14,-99.99,,,0.00,weatherlink.com 1.10,2013-04-22 03:07:00,
2013-04-21 20:22:00,72.5,27.0,29.91,SW,217,12.0,-999.0,18,-99.99,,,0.00,weatherlink.com 1.10,2013-04-22 03:22:00,
2013-04-21 20:37:00,71.5,28.0,29.91,SW,229,10.0,-999.0,20,-99.99,,,0.00,weatherlink.com 1.10,2013-04-22 03:37:00,
2013-04-21 20:52:00,70.8,29.0,29.92,SW,221,13.0,-999.0,21,-99.99,,,0.00,weatherlink.com 1.10,2013-04-22 03:52:00,
2013-04-21 21:07:00,70.3,30.0,29.93,SW,219,10.0,-999.0,22,-99.99,,,0.00,weatherlink.com 1.10,2013-04-22 04:07:00,
2013-04-21 21:22:00,69.6,29.0,29.93,West,261,3.0,-999.0,22,-99.99,,,0.00,weatherlink.com 1.10,2013-04-22 04:22:00,
2013-04-21 21:37:00,68.6,29.0,29.93,West,267,6.0,-999.0,23,-99.99,,,0.00,weatherlink.com 1.10,2013-04-22 04:37:00,
2013-04-21 21:52:00,68.3,30.0,29.93,SW,223,0.0,-999.0,24,-99.99,,,0.00,weatherlink.com 1.10,2013-04-22 04:52:00,
2013-04-21 22:07:00,67.6,30.0,29.94,West,263,6.0,-999.0,25,-99.99,,,0.00,weatherlink.com 1.10,2013-04-22 05:07:00,
2013-04-21 22:22:00,67.3,31.0,29.93,SW,236,6.0,-999.0,26,-99.99,,,0.00,weatherlink.com 1.10,2013-04-22 05:22:00,
2013-04-21 22:37:00,66.8,32.0,29.92,WSW,247,6.0,-999.0,27,-99.99,,,0.00,weatherlink.com 1.10,2013-04-22 05:37:00,
2013-04-21 22:52:00,66.1,32.0,29.92,WSW,246,4.0,-999.0,28,-99.99,,,0.00,weatherlink.com 1.10,2013-04-22 05:52:00,
2013-04-21 23:08:00,65.8,32.0,29.91,SW,214,3.0,-999.0,28,-99.99,,,0.00,weatherlink.com 1.10,2013-04-22 06:08:00,
2013-04-21 23:23:00,65.8,32.0,29.90,SW,220,1.0,-999.0,28,-99.99,,,0.00,weatherlink.com 1.10,2013-04-22 06:23:00,
2013-04-21 23:38:00,65.5,30.0,29.90,West,260,9.0,-999.0,27,-99.99,,,0.00,weatherlink.com 1.10,2013-04-22 06:38:00,
2013-04-21 23:53:00,65.0,31.0,29.90,WSW,252,2.0,-999.0,28,-99.99,,,0.00,weatherlink.com 1.10,2013-04-22 06:53:00,